createdAt,value
2019-04-06T00:00:02.368Z,8.70
2019-04-06T00:02:51.223Z,8.70
2019-04-06T00:05:40.056Z,8.76
2019-04-06T00:08:28.904Z,8.78
2019-04-06T00:11:17.718Z,8.80
2019-04-06T00:14:06.566Z,8.75
2019-04-06T00:16:55.413Z,8.71
2019-04-06T00:19:37.799Z,8.81
2019-04-06T00:22:26.641Z,8.86
2019-04-06T00:25:15.538Z,8.91
2019-04-06T00:28:04.749Z,8.92
2019-04-06T00:33:49.625Z,8.92
2019-04-06T00:36:38.550Z,8.95
2019-04-06T00:39:27.442Z,8.99
2019-04-06T00:42:16.424Z,9.26
2019-04-06T00:45:26.162Z,9.14
2019-04-06T00:48:14.986Z,9.11
2019-04-06T00:51:03.862Z,9.16
2019-04-06T00:53:52.690Z,9.15
2019-04-06T00:56:41.529Z,9.13
2019-04-06T00:59:30.437Z,9.14
2019-04-06T01:02:19.398Z,9.16
2019-04-06T01:11:17.356Z,9.21
2019-04-06T01:14:06.262Z,9.18
2019-04-06T01:16:55.108Z,9.25
2019-04-06T01:19:37.443Z,9.22
2019-04-06T01:22:26.257Z,9.19
2019-04-06T01:25:15.174Z,9.15
2019-04-06T01:28:04.079Z,9.21
2019-04-06T01:30:52.925Z,9.13
2019-04-06T01:33:41.766Z,9.07
2019-04-06T01:36:30.612Z,9.18
2019-04-06T01:39:19.475Z,9.10
2019-04-06T01:42:08.332Z,9.28
2019-04-06T01:44:57.143Z,9.22
2019-04-06T01:47:45.972Z,9.25
2019-04-06T01:50:34.887Z,9.10
2019-04-06T01:53:23.745Z,9.12
2019-04-06T01:55:53.244Z,9.06
2019-04-06T01:58:42.082Z,9.05
2019-04-06T02:01:50.034Z,9.11
2019-04-06T02:04:38.950Z,9.10
2019-04-06T02:07:27.869Z,9.02
2019-04-06T02:10:16.796Z,8.99
2019-04-06T02:13:05.682Z,8.93
2019-04-06T02:15:54.607Z,8.88
2019-04-06T02:18:43.444Z,8.81
2019-04-06T02:21:25.450Z,8.84
2019-04-06T02:24:14.282Z,8.65
2019-04-06T02:27:03.125Z,8.59
2019-04-06T02:33:20.421Z,8.42
2019-04-06T02:36:28.361Z,8.47
2019-04-06T02:39:36.226Z,8.53
2019-04-06T02:45:20.822Z,8.70
2019-04-06T02:48:09.689Z,8.74
2019-04-06T02:50:58.571Z,8.79
2019-04-06T02:53:47.419Z,8.80
2019-04-06T02:56:45.563Z,8.85
2019-04-06T02:59:26.812Z,8.84
2019-04-06T03:02:15.872Z,8.89
2019-04-06T03:05:25.619Z,8.91
2019-04-06T03:08:14.715Z,8.96
2019-04-06T03:11:03.622Z,8.96
2019-04-06T03:13:52.549Z,9.00
2019-04-06T03:16:41.376Z,8.99
2019-04-06T03:19:30.231Z,9.01
2019-04-06T03:22:11.881Z,8.96
2019-04-06T03:25:00.726Z,9.09
2019-04-06T03:27:49.694Z,9.17
2019-04-06T03:30:38.548Z,9.20
2019-04-06T03:33:27.961Z,9.12
2019-04-06T03:36:17.926Z,8.99
2019-04-06T03:42:22.353Z,9.02
2019-04-06T03:45:11.279Z,8.94
2019-04-06T03:48:00.275Z,8.92
2019-04-06T03:50:50.678Z,8.90
2019-04-06T03:53:39.526Z,8.88
2019-04-06T03:56:09.028Z,8.88
2019-04-06T03:58:57.938Z,8.91
2019-04-06T04:01:46.767Z,8.97
2019-04-06T04:04:35.622Z,9.01
2019-04-06T04:07:24.605Z,8.96
2019-04-06T04:10:34.713Z,8.87
2019-04-06T04:13:24.942Z,9.03
2019-04-06T04:16:13.797Z,8.94
2019-04-06T04:19:02.636Z,8.88
2019-04-06T04:21:44.823Z,8.90
2019-04-06T04:24:33.711Z,8.83
2019-04-06T04:27:29.648Z,8.93
2019-04-06T04:30:15.225Z,8.99
2019-04-06T04:33:03.760Z,8.95
2019-04-06T04:35:52.597Z,8.97
2019-04-06T04:38:41.426Z,8.93
2019-04-06T04:41:30.270Z,8.83
2019-04-06T04:44:19.134Z,8.94
2019-04-06T04:47:07.963Z,8.99
2019-04-06T04:49:56.771Z,8.99
2019-04-06T04:52:45.610Z,8.98
2019-04-06T04:55:34.521Z,8.87
2019-04-06T04:58:23.418Z,8.87
2019-04-06T05:01:12.280Z,8.90
2019-04-06T05:04:01.118Z,8.91
2019-04-06T05:06:49.977Z,8.89
2019-04-06T05:09:39.000Z,8.90
2019-04-06T05:12:29.336Z,8.89
2019-04-06T05:15:39.206Z,9.07
2019-04-06T05:18:29.633Z,9.24
2019-04-06T05:21:11.890Z,9.24
2019-04-06T05:24:00.770Z,9.19
2019-04-06T05:26:49.566Z,9.22
2019-04-06T05:29:38.407Z,9.12
2019-04-06T05:32:27.319Z,9.25
2019-04-06T05:35:16.337Z,9.21
2019-04-06T05:38:05.201Z,9.39
2019-04-06T05:40:54.120Z,9.52
2019-04-06T05:43:42.961Z,9.65
2019-04-06T05:46:31.980Z,9.56
2019-04-06T05:49:20.914Z,9.63
2019-04-06T05:52:09.808Z,9.83
2019-04-06T05:54:58.659Z,9.94
2019-04-06T05:57:47.618Z,9.76
2019-04-06T06:03:40.018Z,9.98
2019-04-06T06:06:39.607Z,10.10
2019-04-06T06:12:33.349Z,10.45
2019-04-06T06:18:26.514Z,10.55
2019-04-06T06:21:02.339Z,10.60
2019-04-06T06:23:51.215Z,10.63
2019-04-06T06:26:40.120Z,10.76
2019-04-06T06:29:28.999Z,10.66
2019-04-06T06:32:17.858Z,11.14
2019-04-06T06:35:06.905Z,11.21
2019-04-06T06:37:55.747Z,11.19
2019-04-06T06:40:44.644Z,11.32
2019-04-06T06:43:33.517Z,11.24
2019-04-06T06:46:22.415Z,11.20
2019-04-06T06:49:11.332Z,11.29
2019-04-06T06:52:00.331Z,11.26
2019-04-06T06:54:49.168Z,11.13
2019-04-06T06:57:38.197Z,11.53
2019-04-06T07:00:27.193Z,11.41
2019-04-06T07:03:16.048Z,11.85
2019-04-06T07:06:05.161Z,12.06
2019-04-06T07:08:54.028Z,11.83
2019-04-06T07:11:42.863Z,12.12
2019-04-06T07:14:31.736Z,12.57
2019-04-06T07:17:20.673Z,12.53
2019-04-06T07:20:09.530Z,12.43
2019-04-06T07:22:51.508Z,12.79
2019-04-06T07:25:40.378Z,12.79
2019-04-06T07:28:37.848Z,12.88
2019-04-06T07:31:19.805Z,12.83
2019-04-06T07:34:08.657Z,12.69
2019-04-06T07:36:57.689Z,12.71
2019-04-06T07:39:47.363Z,13.17
2019-04-06T07:42:36.287Z,13.06
2019-04-06T07:45:25.251Z,13.12
2019-04-06T07:48:14.209Z,13.22
2019-04-06T07:51:03.122Z,13.12
2019-04-06T07:53:51.967Z,13.28
2019-04-06T07:56:21.557Z,13.49
2019-04-06T07:59:10.466Z,12.95
2019-04-06T08:01:59.311Z,13.45
2019-04-06T08:04:48.154Z,13.52
2019-04-06T08:10:31.954Z,13.22
2019-04-06T08:13:21.129Z,13.13
2019-04-06T08:16:10.060Z,12.91
2019-04-06T08:18:59.065Z,13.45
2019-04-06T08:21:40.859Z,13.21
2019-04-06T08:24:48.693Z,13.77
2019-04-06T08:27:37.705Z,13.83
2019-04-06T08:30:26.641Z,13.84
2019-04-06T08:33:15.648Z,13.76
2019-04-06T08:36:04.793Z,14.46
2019-04-06T08:42:10.387Z,14.73
2019-04-06T08:44:59.256Z,14.43
2019-04-06T08:47:48.165Z,15.09
2019-04-06T08:53:46.496Z,15.23
2019-04-06T08:56:35.406Z,16.23
2019-04-06T08:59:24.282Z,18.10
2019-04-06T09:02:13.260Z,19.08
2019-04-06T09:05:02.129Z,18.49
2019-04-06T09:07:51.279Z,18.79
2019-04-06T09:10:59.385Z,18.15
2019-04-06T09:13:48.386Z,18.91
2019-04-06T09:16:38.817Z,19.28
2019-04-06T09:19:27.778Z,19.84
2019-04-06T09:22:09.849Z,19.58
2019-04-06T09:24:58.788Z,20.03
2019-04-06T09:27:47.783Z,20.90
2019-04-06T09:30:36.693Z,21.73
2019-04-06T09:33:25.513Z,21.76
2019-04-06T09:36:14.467Z,20.41
2019-04-06T09:42:12.746Z,19.94
2019-04-06T09:45:20.607Z,19.40
2019-04-06T09:48:28.549Z,20.38
2019-04-06T09:51:36.397Z,20.48
2019-04-06T09:54:44.292Z,19.98
2019-04-06T09:57:52.157Z,18.37
2019-04-06T10:01:00.400Z,18.83
2019-04-06T10:04:09.715Z,19.91
2019-04-06T10:07:17.632Z,18.88
2019-04-06T10:16:40.295Z,16.66
2019-04-06T10:22:36.337Z,16.70
2019-04-06T10:25:25.033Z,17.62
2019-04-06T10:31:28.804Z,18.89
2019-04-06T10:34:36.657Z,20.23
2019-04-06T10:37:44.666Z,20.34
2019-04-06T10:40:52.487Z,20.50
2019-04-06T10:46:56.489Z,22.21
2019-04-06T10:50:04.332Z,21.71
2019-04-06T10:53:12.212Z,21.09
2019-04-06T10:56:20.167Z,21.34
2019-04-06T10:59:28.024Z,21.73
2019-04-06T11:02:35.901Z,22.24
2019-04-06T11:05:43.747Z,22.17
2019-04-06T11:08:51.838Z,21.76
2019-04-06T11:11:40.420Z,21.60
2019-04-06T11:14:48.269Z,21.44
2019-04-06T11:17:56.294Z,21.36
2019-04-06T11:21:04.155Z,19.79
2019-04-06T11:24:05.420Z,20.90
2019-04-06T11:33:37.662Z,22.15
2019-04-06T11:36:45.508Z,23.73
2019-04-06T11:42:49.252Z,23.51
2019-04-06T11:45:57.114Z,22.96
2019-04-06T11:49:05.016Z,22.97
2019-04-06T11:52:12.938Z,23.40
2019-04-06T11:55:20.820Z,23.39
2019-04-06T12:01:38.093Z,22.42
2019-04-06T12:07:36.546Z,22.22
2019-04-06T12:10:45.701Z,21.86
2019-04-06T12:13:53.662Z,21.19
2019-04-06T12:17:01.500Z,20.97
2019-04-06T12:20:09.621Z,21.20
2019-04-06T12:22:58.348Z,21.54
2019-04-06T12:29:16.235Z,22.14
2019-04-06T12:35:44.743Z,21.07
2019-04-06T12:42:02.036Z,22.75
2019-04-06T12:45:09.913Z,22.90
2019-04-06T12:51:17.639Z,22.39
2019-04-06T12:54:25.505Z,22.05
2019-04-06T12:57:33.701Z,21.62
2019-04-06T13:00:51.221Z,21.43
2019-04-06T13:03:51.384Z,22.33
2019-04-06T13:06:59.318Z,21.71
2019-04-06T13:10:07.407Z,21.88
2019-04-06T13:13:15.225Z,21.22
2019-04-06T13:19:38.260Z,21.53
2019-04-06T13:22:46.234Z,21.12
2019-04-06T13:25:32.017Z,21.73
2019-04-06T13:28:39.897Z,20.90
2019-04-06T13:34:47.693Z,20.80
2019-04-06T13:37:36.294Z,20.70
2019-04-06T13:40:44.219Z,20.79
2019-04-06T13:46:47.630Z,20.51
2019-04-06T13:49:55.493Z,20.24
2019-04-06T13:53:03.358Z,20.61
2019-04-06T13:56:11.235Z,20.48
2019-04-06T13:59:19.159Z,20.42
2019-04-06T14:02:07.793Z,20.51
2019-04-06T14:08:15.805Z,19.82
2019-04-06T14:11:23.755Z,19.16
2019-04-06T14:14:31.638Z,18.80
2019-04-06T14:17:39.530Z,19.03
2019-04-06T14:20:47.439Z,18.90
2019-04-06T14:29:46.094Z,19.69
2019-04-06T14:36:04.520Z,21.50
2019-04-06T14:42:21.909Z,21.74
2019-04-06T14:45:30.003Z,20.31
2019-04-06T14:48:37.858Z,19.14
2019-04-06T14:51:45.961Z,19.47
2019-04-06T14:54:53.845Z,19.10
2019-04-06T14:58:01.747Z,19.01
2019-04-06T15:01:09.674Z,19.36
2019-04-06T15:04:18.158Z,19.11
2019-04-06T15:07:26.090Z,19.43
2019-04-06T15:10:33.965Z,19.45
2019-04-06T15:13:41.897Z,19.12
2019-04-06T15:16:49.789Z,18.93
2019-04-06T15:19:57.698Z,18.79
2019-04-06T15:22:46.299Z,19.19
2019-04-06T15:25:47.782Z,19.18
2019-04-06T15:28:55.724Z,19.54
2019-04-06T15:32:03.588Z,19.62
2019-04-06T15:35:11.454Z,19.75
2019-04-06T15:38:19.326Z,20.21
2019-04-06T15:41:27.261Z,20.17
2019-04-06T15:44:35.139Z,19.83
2019-04-06T15:47:43.425Z,19.32
2019-04-06T15:50:51.380Z,19.27
2019-04-06T15:54:01.321Z,19.30
2019-04-06T16:00:18.295Z,18.96
2019-04-06T16:03:26.166Z,19.08
2019-04-06T16:06:34.447Z,19.04
2019-04-06T16:09:23.427Z,18.87
2019-04-06T16:12:32.635Z,18.94
2019-04-06T16:15:40.738Z,18.93
2019-04-06T16:21:48.409Z,18.86
2019-04-06T16:24:49.365Z,18.85
2019-04-06T16:27:57.231Z,18.65
2019-04-06T16:34:14.658Z,18.59
2019-04-06T16:37:22.518Z,18.47
2019-04-06T16:40:30.437Z,18.62
2019-04-06T16:46:33.987Z,18.59
2019-04-06T16:49:42.191Z,18.13
2019-04-06T16:52:50.107Z,18.25
2019-04-06T16:59:07.381Z,18.18
2019-04-06T17:02:23.206Z,18.15
2019-04-06T17:08:25.358Z,18.14
2019-04-06T17:11:33.683Z,18.13
2019-04-06T17:14:41.616Z,17.88
2019-04-06T17:17:50.000Z,17.48
2019-04-06T17:20:57.871Z,17.38
2019-04-06T17:24:05.798Z,17.34
2019-04-06T17:27:21.117Z,17.16
2019-04-06T17:33:44.876Z,16.74
2019-04-06T17:40:02.166Z,16.51
2019-04-06T17:42:50.777Z,16.30
2019-04-06T17:45:58.780Z,16.17
2019-04-06T17:49:06.682Z,16.06
2019-04-06T17:52:14.650Z,15.76
2019-04-06T18:01:18.383Z,15.00
2019-04-06T18:04:27.598Z,14.73
2019-04-06T18:07:35.481Z,14.52
2019-04-06T18:10:43.650Z,14.31
2019-04-06T18:13:52.139Z,14.11
2019-04-06T18:16:41.024Z,13.91
2019-04-06T18:19:29.915Z,13.69
2019-04-06T18:22:18.722Z,13.51
2019-04-06T18:25:00.576Z,13.36
2019-04-06T18:27:49.416Z,13.22
2019-04-06T18:30:38.408Z,13.11
2019-04-06T18:42:18.631Z,12.81
2019-04-06T18:45:07.632Z,12.72
2019-04-06T18:47:56.568Z,12.66
2019-04-06T18:50:45.395Z,12.60
2019-04-06T18:53:53.694Z,12.44
2019-04-06T18:56:44.018Z,12.35
2019-04-06T18:59:32.879Z,12.24
2019-04-06T19:02:21.789Z,12.03
2019-04-06T19:11:20.148Z,11.75
2019-04-06T19:14:09.521Z,11.70
2019-04-06T19:16:59.671Z,11.72
2019-04-06T19:19:48.886Z,11.72
2019-04-06T19:22:39.261Z,11.57
2019-04-06T19:25:20.985Z,11.49
2019-04-06T19:28:09.912Z,11.45
2019-04-06T19:30:58.765Z,11.38
2019-04-06T19:33:47.647Z,11.27
2019-04-06T19:36:36.503Z,11.26
2019-04-06T19:39:44.926Z,11.19
2019-04-06T19:42:35.194Z,11.10
2019-04-06T19:45:25.917Z,11.05
2019-04-06T19:48:16.223Z,10.98
2019-04-06T19:51:24.289Z,10.92
2019-04-06T19:54:13.142Z,10.89
2019-04-06T19:57:02.008Z,10.81
2019-04-06T19:59:51.403Z,10.73
2019-04-06T20:02:41.950Z,10.71
2019-04-06T20:05:32.068Z,10.67
2019-04-06T20:08:20.910Z,10.63
2019-04-06T20:11:09.891Z,10.60
2019-04-06T20:14:17.855Z,10.55
2019-04-06T20:17:06.960Z,10.52
2019-04-06T20:19:57.524Z,10.48
2019-04-06T20:22:47.950Z,10.45
2019-04-06T20:25:29.778Z,10.45
2019-04-06T20:28:37.649Z,10.44
2019-04-06T20:31:26.497Z,10.53
2019-04-06T20:34:15.368Z,10.60
2019-04-06T20:37:04.601Z,10.72
2019-04-06T20:39:55.008Z,10.78
2019-04-06T20:42:43.861Z,10.81
2019-04-06T20:45:32.707Z,10.73
2019-04-06T20:48:21.584Z,10.72
2019-04-06T20:51:29.410Z,10.67
2019-04-06T20:54:18.167Z,10.63
2019-04-06T20:57:07.576Z,10.55
2019-04-06T20:59:57.615Z,10.48
2019-04-06T21:02:46.485Z,10.41
2019-04-06T21:08:43.167Z,10.30
2019-04-06T21:11:51.166Z,10.22
2019-04-06T21:14:20.696Z,10.18
2019-04-06T21:17:28.643Z,10.09
2019-04-06T21:20:17.618Z,10.05
2019-04-06T21:23:06.453Z,9.99
2019-04-06T21:25:48.156Z,9.96
2019-04-06T21:28:37.004Z,9.99
2019-04-06T21:31:25.880Z,10.01
2019-04-06T21:34:16.726Z,10.01
2019-04-06T21:37:05.414Z,9.97
2019-04-06T21:39:54.352Z,9.90
2019-04-06T21:42:43.266Z,9.83
2019-04-06T21:45:51.221Z,9.77
2019-04-06T21:48:40.339Z,9.70
2019-04-06T21:51:30.950Z,9.60
2019-04-06T21:54:21.427Z,9.56
2019-04-06T21:57:10.582Z,9.51
2019-04-06T22:00:00.899Z,9.45
2019-04-06T22:02:50.161Z,9.42
2019-04-06T22:05:40.921Z,9.36
2019-04-06T22:08:30.905Z,9.37
2019-04-06T22:11:38.878Z,9.33
2019-04-06T22:14:28.312Z,9.29
2019-04-06T22:17:18.685Z,9.27
2019-04-06T22:20:09.504Z,9.23
2019-04-06T22:22:59.521Z,9.15
2019-04-06T22:25:48.354Z,9.12
2019-04-06T22:28:30.075Z,9.10
2019-04-06T22:31:18.915Z,9.06
2019-04-06T22:34:36.366Z,9.02
2019-04-06T22:37:17.956Z,8.98
2019-04-06T22:40:08.606Z,8.94
2019-04-06T22:42:58.764Z,8.95
2019-04-06T22:46:06.987Z,8.96
2019-04-06T22:48:57.487Z,8.98
2019-04-06T22:51:48.284Z,8.89
2019-04-06T22:54:38.780Z,8.87
2019-04-06T22:57:29.490Z,8.82
2019-04-06T23:03:34.357Z,8.78
2019-04-06T23:06:42.237Z,8.71
2019-04-06T23:09:50.177Z,8.68
2019-04-06T23:12:39.427Z,8.59
2019-04-06T23:15:29.657Z,8.59
2019-04-06T23:18:18.527Z,8.56
2019-04-06T23:21:26.852Z,8.54
2019-04-06T23:24:16.999Z,8.51
2019-04-06T23:26:59.014Z,8.46
2019-04-06T23:29:48.534Z,8.47
2019-04-06T23:32:38.450Z,8.45
2019-04-06T23:35:27.305Z,8.44
2019-04-06T23:38:16.713Z,8.42
2019-04-06T23:41:06.775Z,8.43
2019-04-06T23:43:55.622Z,8.51
2019-04-06T23:47:03.476Z,8.54
2019-04-06T23:49:52.326Z,8.54
2019-04-06T23:52:41.172Z,8.44
2019-04-06T23:55:30.062Z,8.42
2019-04-06T23:58:18.931Z,8.41
